sensor_id;sensor_type;location;lat;lon;timestamp;P1;durP1;ratioP1;P2;durP2;ratioP2
7116;SDS011;3600;48.568;7.870;2023-04-28T00:00:31;3.40;;;3.13;;
7116;SDS011;3600;48.568;7.870;2023-04-28T00:02:58;3.53;;;3.22;;
7116;SDS011;3600;48.568;7.870;2023-04-28T00:05:25;6.03;;;3.90;;
7116;SDS011;3600;48.568;7.870;2023-04-28T00:07:52;4.53;;;4.13;;
7116;SDS011;3600;48.568;7.870;2023-04-28T00:10:19;6.07;;;4.25;;
7116;SDS011;3600;48.568;7.870;2023-04-28T00:12:46;4.50;;;4.10;;
7116;SDS011;3600;48.568;7.870;2023-04-28T00:15:13;4.38;;;3.97;;
7116;SDS011;3600;48.568;7.870;2023-04-28T00:17:40;3.83;;;3.47;;
7116;SDS011;3600;48.568;7.870;2023-04-28T00:20:09;4.97;;;3.45;;
7116;SDS011;3600;48.568;7.870;2023-04-28T00:22:36;3.60;;;3.30;;
7116;SDS011;3600;48.568;7.870;2023-04-28T00:25:03;4.05;;;3.65;;
7116;SDS011;3600;48.568;7.870;2023-04-28T00:27:34;5.35;;;4.40;;
7116;SDS011;3600;48.568;7.870;2023-04-28T00:30:01;5.57;;;4.05;;
7116;SDS011;3600;48.568;7.870;2023-04-28T00:32:28;4.20;;;3.53;;
7116;SDS011;3600;48.568;7.870;2023-04-28T00:34:56;3.85;;;3.47;;
7116;SDS011;3600;48.568;7.870;2023-04-28T00:37:23;4.07;;;3.15;;
7116;SDS011;3600;48.568;7.870;2023-04-28T00:39:53;3.55;;;3.10;;
7116;SDS011;3600;48.568;7.870;2023-04-28T00:42:21;4.22;;;3.25;;
7116;SDS011;3600;48.568;7.870;2023-04-28T00:44:48;3.10;;;2.80;;
7116;SDS011;3600;48.568;7.870;2023-04-28T00:47:16;4.15;;;2.83;;
7116;SDS011;3600;48.568;7.870;2023-04-28T00:49:44;3.83;;;2.92;;
7116;SDS011;3600;48.568;7.870;2023-04-28T00:52:12;2.45;;;2.25;;
7116;SDS011;3600;48.568;7.870;2023-04-28T00:54:42;2.58;;;2.38;;
7116;SDS011;3600;48.568;7.870;2023-04-28T00:57:09;2.47;;;2.28;;
7116;SDS011;3600;48.568;7.870;2023-04-28T00:59:36;2.88;;;2.63;;
7116;SDS011;3600;48.568;7.870;2023-04-28T01:02:03;2.67;;;2.47;;
7116;SDS011;3600;48.568;7.870;2023-04-28T01:04:33;2.67;;;2.47;;
7116;SDS011;3600;48.568;7.870;2023-04-28T01:07:01;2.20;;;2.10;;
7116;SDS011;3600;48.568;7.870;2023-04-28T01:09:29;2.42;;;2.20;;
7116;SDS011;3600;48.568;7.870;2023-04-28T01:11:56;2.90;;;2.15;;
7116;SDS011;3600;48.568;7.870;2023-04-28T01:14:23;2.65;;;2.10;;
7116;SDS011;3600;48.568;7.870;2023-04-28T01:16:50;2.35;;;2.15;;
7116;SDS011;3600;48.568;7.870;2023-04-28T01:19:19;2.50;;;2.30;;
7116;SDS011;3600;48.568;7.870;2023-04-28T01:21:49;2.85;;;2.35;;
7116;SDS011;3600;48.568;7.870;2023-04-28T01:24:16;3.60;;;2.45;;
7116;SDS011;3600;48.568;7.870;2023-04-28T01:26:44;2.70;;;2.50;;
7116;SDS011;3600;48.568;7.870;2023-04-28T01:29:11;2.92;;;2.38;;
7116;SDS011;3600;48.568;7.870;2023-04-28T01:31:38;2.70;;;2.50;;
7116;SDS011;3600;48.568;7.870;2023-04-28T01:34:05;2.70;;;2.50;;
7116;SDS011;3600;48.568;7.870;2023-04-28T01:36:31;2.70;;;2.50;;
7116;SDS011;3600;48.568;7.870;2023-04-28T01:39:02;2.42;;;2.33;;
7116;SDS011;3600;48.568;7.870;2023-04-28T01:41:29;2.30;;;2.20;;
7116;SDS011;3600;48.568;7.870;2023-04-28T01:43:59;2.67;;;2.47;;
7116;SDS011;3600;48.568;7.870;2023-04-28T01:46:26;3.92;;;2.58;;
7116;SDS011;3600;48.568;7.870;2023-04-28T01:48:53;4.45;;;2.53;;
7116;SDS011;3600;48.568;7.870;2023-04-28T01:51:20;2.97;;;2.78;;
7116;SDS011;3600;48.568;7.870;2023-04-28T01:53:46;2.70;;;2.50;;
7116;SDS011;3600;48.568;7.870;2023-04-28T01:56:13;3.17;;;2.88;;
7116;SDS011;3600;48.568;7.870;2023-04-28T01:58:40;3.92;;;3.10;;
7116;SDS011;3600;48.568;7.870;2023-04-28T02:01:09;3.08;;;2.35;;
7116;SDS011;3600;48.568;7.870;2023-04-28T02:03:36;3.10;;;2.78;;
7116;SDS011;3600;48.568;7.870;2023-04-28T02:06:03;3.72;;;3.13;;
7116;SDS011;3600;48.568;7.870;2023-04-28T02:08:30;9.40;;;3.25;;
7116;SDS011;3600;48.568;7.870;2023-04-28T02:10:57;3.38;;;3.08;;
7116;SDS011;3600;48.568;7.870;2023-04-28T02:13:24;3.30;;;3.00;;
7116;SDS011;3600;48.568;7.870;2023-04-28T02:15:50;3.25;;;3.00;;
7116;SDS011;3600;48.568;7.870;2023-04-28T02:18:17;3.70;;;3.40;;
7116;SDS011;3600;48.568;7.870;2023-04-28T02:20:44;3.50;;;2.95;;
7116;SDS011;3600;48.568;7.870;2023-04-28T02:23:12;3.53;;;3.25;;
7116;SDS011;3600;48.568;7.870;2023-04-28T02:25:39;4.07;;;3.78;;
7116;SDS011;3600;48.568;7.870;2023-04-28T02:28:05;5.03;;;4.03;;
7116;SDS011;3600;48.568;7.870;2023-04-28T02:30:32;4.47;;;4.07;;
7116;SDS011;3600;48.568;7.870;2023-04-28T02:32:59;4.13;;;3.83;;
7116;SDS011;3600;48.568;7.870;2023-04-28T02:35:26;4.15;;;3.75;;
7116;SDS011;3600;48.568;7.870;2023-04-28T02:37:53;4.07;;;3.67;;
7116;SDS011;3600;48.568;7.870;2023-04-28T02:40:20;5.20;;;4.13;;
7116;SDS011;3600;48.568;7.870;2023-04-28T02:42:46;3.63;;;3.33;;
7116;SDS011;3600;48.568;7.870;2023-04-28T02:45:13;4.63;;;3.90;;
7116;SDS011;3600;48.568;7.870;2023-04-28T02:47:40;5.05;;;4.07;;
7116;SDS011;3600;48.568;7.870;2023-04-28T02:50:07;4.40;;;4.00;;
7116;SDS011;3600;48.568;7.870;2023-04-28T02:52:34;5.75;;;3.90;;
7116;SDS011;3600;48.568;7.870;2023-04-28T02:55:01;4.32;;;3.92;;
7116;SDS011;3600;48.568;7.870;2023-04-28T02:57:29;4.18;;;3.78;;
7116;SDS011;3600;48.568;7.870;2023-04-28T02:59:56;3.95;;;3.65;;
7116;SDS011;3600;48.568;7.870;2023-04-28T03:02:23;4.07;;;3.78;;
7116;SDS011;3600;48.568;7.870;2023-04-28T03:04:50;4.35;;;4.05;;
7116;SDS011;3600;48.568;7.870;2023-04-28T03:07:17;4.00;;;3.70;;
7116;SDS011;3600;48.568;7.870;2023-04-28T03:09:44;3.78;;;3.47;;
7116;SDS011;3600;48.568;7.870;2023-04-28T03:12:11;3.35;;;3.05;;
7116;SDS011;3600;48.568;7.870;2023-04-28T03:14:38;3.97;;;3.08;;
7116;SDS011;3600;48.568;7.870;2023-04-28T03:17:04;4.80;;;2.95;;
7116;SDS011;3600;48.568;7.870;2023-04-28T03:19:32;3.85;;;3.13;;
7116;SDS011;3600;48.568;7.870;2023-04-28T03:21:59;3.22;;;2.85;;
7116;SDS011;3600;48.568;7.870;2023-04-28T03:24:28;3.63;;;3.03;;
7116;SDS011;3600;48.568;7.870;2023-04-28T03:26:55;2.88;;;2.67;;
7116;SDS011;3600;48.568;7.870;2023-04-28T03:29:22;2.55;;;2.38;;
7116;SDS011;3600;48.568;7.870;2023-04-28T03:31:50;4.53;;;3.10;;
7116;SDS011;3600;48.568;7.870;2023-04-28T03:34:17;3.63;;;3.28;;
7116;SDS011;3600;48.568;7.870;2023-04-28T03:36:46;3.70;;;3.40;;
7116;SDS011;3600;48.568;7.870;2023-04-28T03:39:13;3.22;;;2.92;;
7116;SDS011;3600;48.568;7.870;2023-04-28T03:41:39;3.10;;;2.80;;
7116;SDS011;3600;48.568;7.870;2023-04-28T03:44:06;3.58;;;3.28;;
7116;SDS011;3600;48.568;7.870;2023-04-28T03:46:33;4.07;;;3.22;;
7116;SDS011;3600;48.568;7.870;2023-04-28T03:49:00;3.83;;;3.42;;
7116;SDS011;3600;48.568;7.870;2023-04-28T03:51:28;2.90;;;2.70;;
7116;SDS011;3600;48.568;7.870;2023-04-28T03:53:56;6.15;;;3.55;;
7116;SDS011;3600;48.568;7.870;2023-04-28T03:56:22;3.90;;;3.13;;
7116;SDS011;3600;48.568;7.870;2023-04-28T03:58:49;3.60;;;3.30;;
7116;SDS011;3600;48.568;7.870;2023-04-28T04:01:16;3.47;;;2.95;;
7116;SDS011;3600;48.568;7.870;2023-04-28T04:03:43;5.25;;;3.42;;
7116;SDS011;3600;48.568;7.870;2023-04-28T04:06:10;3.03;;;2.78;;
7116;SDS011;3600;48.568;7.870;2023-04-28T04:08:37;3.25;;;3.05;;
7116;SDS011;3600;48.568;7.870;2023-04-28T04:11:03;5.43;;;3.00;;
7116;SDS011;3600;48.568;7.870;2023-04-28T04:13:30;4.60;;;2.80;;
7116;SDS011;3600;48.568;7.870;2023-04-28T04:15:57;3.50;;;3.20;;
7116;SDS011;3600;48.568;7.870;2023-04-28T04:18:24;3.17;;;2.97;;
7116;SDS011;3600;48.568;7.870;2023-04-28T04:20:51;4.53;;;3.20;;
7116;SDS011;3600;48.568;7.870;2023-04-28T04:23:20;3.60;;;3.30;;
7116;SDS011;3600;48.568;7.870;2023-04-28T04:25:48;3.35;;;3.05;;
7116;SDS011;3600;48.568;7.870;2023-04-28T04:28:15;3.30;;;3.08;;
7116;SDS011;3600;48.568;7.870;2023-04-28T04:30:41;3.70;;;3.47;;
7116;SDS011;3600;48.568;7.870;2023-04-28T04:33:08;6.10;;;5.30;;
7116;SDS011;3600;48.568;7.870;2023-04-28T04:35:35;6.32;;;5.00;;
7116;SDS011;3600;48.568;7.870;2023-04-28T04:38:02;4.85;;;4.45;;
7116;SDS011;3600;48.568;7.870;2023-04-28T04:40:29;4.03;;;3.72;;
7116;SDS011;3600;48.568;7.870;2023-04-28T04:42:55;3.72;;;3.42;;
7116;SDS011;3600;48.568;7.870;2023-04-28T04:45:22;3.80;;;3.50;;
7116;SDS011;3600;48.568;7.870;2023-04-28T04:47:49;4.38;;;3.47;;
7116;SDS011;3600;48.568;7.870;2023-04-28T04:50:17;4.22;;;3.90;;
7116;SDS011;3600;48.568;7.870;2023-04-28T04:52:44;5.00;;;3.88;;
7116;SDS011;3600;48.568;7.870;2023-04-28T04:55:10;4.70;;;3.95;;
7116;SDS011;3600;48.568;7.870;2023-04-28T04:57:37;3.97;;;3.67;;
7116;SDS011;3600;48.568;7.870;2023-04-28T05:00:04;4.45;;;4.05;;
7116;SDS011;3600;48.568;7.870;2023-04-28T05:02:31;4.50;;;4.10;;
7116;SDS011;3600;48.568;7.870;2023-04-28T05:04:58;4.53;;;4.13;;
7116;SDS011;3600;48.568;7.870;2023-04-28T05:07:44;5.03;;;4.60;;
7116;SDS011;3600;48.568;7.870;2023-04-28T05:10:11;5.10;;;4.60;;
7116;SDS011;3600;48.568;7.870;2023-04-28T05:12:38;4.97;;;4.18;;
7116;SDS011;3600;48.568;7.870;2023-04-28T05:15:05;4.30;;;3.90;;
7116;SDS011;3600;48.568;7.870;2023-04-28T05:17:33;4.68;;;4.20;;
7116;SDS011;3600;48.568;7.870;2023-04-28T05:20:00;4.38;;;4.07;;
7116;SDS011;3600;48.568;7.870;2023-04-28T05:22:27;4.45;;;4.15;;
7116;SDS011;3600;48.568;7.870;2023-04-28T05:24:53;4.75;;;4.25;;
7116;SDS011;3600;48.568;7.870;2023-04-28T05:27:20;4.13;;;3.80;;
7116;SDS011;3600;48.568;7.870;2023-04-28T05:29:47;4.70;;;4.05;;
7116;SDS011;3600;48.568;7.870;2023-04-28T05:32:14;4.00;;;3.60;;
7116;SDS011;3600;48.568;7.870;2023-04-28T05:34:41;3.60;;;3.30;;
7116;SDS011;3600;48.568;7.870;2023-04-28T05:37:08;3.85;;;3.55;;
7116;SDS011;3600;48.568;7.870;2023-04-28T05:39:34;4.10;;;3.50;;
7116;SDS011;3600;48.568;7.870;2023-04-28T05:42:01;4.32;;;3.30;;
7116;SDS011;3600;48.568;7.870;2023-04-28T05:44:30;4.75;;;3.30;;
7116;SDS011;3600;48.568;7.870;2023-04-28T05:46:56;4.85;;;3.42;;
7116;SDS011;3600;48.568;7.870;2023-04-28T05:49:23;4.10;;;3.60;;
7116;SDS011;3600;48.568;7.870;2023-04-28T05:51:50;5.18;;;4.35;;
7116;SDS011;3600;48.568;7.870;2023-04-28T05:54:17;4.97;;;4.47;;
7116;SDS011;3600;48.568;7.870;2023-04-28T05:56:44;5.20;;;4.20;;
7116;SDS011;3600;48.568;7.870;2023-04-28T05:59:11;14.55;;;4.45;;
7116;SDS011;3600;48.568;7.870;2023-04-28T06:01:38;3.70;;;3.47;;
7116;SDS011;3600;48.568;7.870;2023-04-28T06:04:04;4.22;;;3.78;;
7116;SDS011;3600;48.568;7.870;2023-04-28T06:06:31;4.10;;;3.70;;
7116;SDS011;3600;48.568;7.870;2023-04-28T06:08:59;4.70;;;4.20;;
7116;SDS011;3600;48.568;7.870;2023-04-28T06:11:27;3.50;;;3.22;;
7116;SDS011;3600;48.568;7.870;2023-04-28T06:13:53;3.88;;;3.53;;
7116;SDS011;3600;48.568;7.870;2023-04-28T06:16:20;3.90;;;3.50;;
7116;SDS011;3600;48.568;7.870;2023-04-28T06:18:48;4.00;;;3.70;;
7116;SDS011;3600;48.568;7.870;2023-04-28T06:21:15;3.92;;;3.50;;
7116;SDS011;3600;48.568;7.870;2023-04-28T06:23:42;4.00;;;3.60;;
7116;SDS011;3600;48.568;7.870;2023-04-28T06:26:09;5.30;;;3.90;;
7116;SDS011;3600;48.568;7.870;2023-04-28T06:28:36;3.85;;;3.55;;
7116;SDS011;3600;48.568;7.870;2023-04-28T06:31:03;3.58;;;3.28;;
7116;SDS011;3600;48.568;7.870;2023-04-28T06:33:30;4.40;;;3.45;;
7116;SDS011;3600;48.568;7.870;2023-04-28T06:35:56;4.00;;;3.20;;
7116;SDS011;3600;48.568;7.870;2023-04-28T06:38:23;4.00;;;3.60;;
7116;SDS011;3600;48.568;7.870;2023-04-28T06:40:50;4.40;;;3.67;;
7116;SDS011;3600;48.568;7.870;2023-04-28T06:43:17;4.05;;;3.58;;
7116;SDS011;3600;48.568;7.870;2023-04-28T06:45:43;3.83;;;3.53;;
7116;SDS011;3600;48.568;7.870;2023-04-28T06:48:10;5.97;;;3.45;;
7116;SDS011;3600;48.568;7.870;2023-04-28T06:50:37;3.95;;;3.65;;
7116;SDS011;3600;48.568;7.870;2023-04-28T06:53:07;4.28;;;3.97;;
7116;SDS011;3600;48.568;7.870;2023-04-28T06:55:34;5.05;;;3.65;;
7116;SDS011;3600;48.568;7.870;2023-04-28T06:58:01;5.28;;;3.90;;
7116;SDS011;3600;48.568;7.870;2023-04-28T07:00:28;3.97;;;3.47;;
7116;SDS011;3600;48.568;7.870;2023-04-28T07:02:54;4.40;;;4.00;;
7116;SDS011;3600;48.568;7.870;2023-04-28T07:05:21;4.40;;;3.72;;
7116;SDS011;3600;48.568;7.870;2023-04-28T07:07:48;4.63;;;4.05;;
7116;SDS011;3600;48.568;7.870;2023-04-28T07:10:15;3.70;;;3.40;;
7116;SDS011;3600;48.568;7.870;2023-04-28T07:12:42;5.63;;;4.07;;
7116;SDS011;3600;48.568;7.870;2023-04-28T07:15:09;5.68;;;3.95;;
7116;SDS011;3600;48.568;7.870;2023-04-28T07:17:36;5.10;;;4.40;;
7116;SDS011;3600;48.568;7.870;2023-04-28T07:20:03;4.63;;;4.15;;
7116;SDS011;3600;48.568;7.870;2023-04-28T07:22:31;5.28;;;4.20;;
7116;SDS011;3600;48.568;7.870;2023-04-28T07:24:58;5.00;;;4.50;;
7116;SDS011;3600;48.568;7.870;2023-04-28T07:27:25;5.05;;;4.20;;
7116;SDS011;3600;48.568;7.870;2023-04-28T07:29:52;4.60;;;4.00;;
7116;SDS011;3600;48.568;7.870;2023-04-28T07:32:19;6.25;;;3.92;;
7116;SDS011;3600;48.568;7.870;2023-04-28T07:34:45;5.30;;;4.80;;
7116;SDS011;3600;48.568;7.870;2023-04-28T07:37:12;5.15;;;4.68;;
7116;SDS011;3600;48.568;7.870;2023-04-28T07:39:39;5.40;;;4.35;;
7116;SDS011;3600;48.568;7.870;2023-04-28T07:42:06;4.18;;;3.88;;
7116;SDS011;3600;48.568;7.870;2023-04-28T07:44:34;5.13;;;4.20;;
7116;SDS011;3600;48.568;7.870;2023-04-28T07:47:01;4.35;;;3.95;;
7116;SDS011;3600;48.568;7.870;2023-04-28T07:49:28;5.03;;;4.55;;
7116;SDS011;3600;48.568;7.870;2023-04-28T07:51:55;5.80;;;4.80;;
7116;SDS011;3600;48.568;7.870;2023-04-28T07:54:22;5.57;;;4.20;;
7116;SDS011;3600;48.568;7.870;2023-04-28T07:56:49;5.43;;;4.47;;
7116;SDS011;3600;48.568;7.870;2023-04-28T07:59:16;5.82;;;5.03;;
7116;SDS011;3600;48.568;7.870;2023-04-28T08:01:43;5.35;;;4.20;;
7116;SDS011;3600;48.568;7.870;2023-04-28T08:04:10;5.72;;;5.22;;
7116;SDS011;3600;48.568;7.870;2023-04-28T08:06:37;5.00;;;4.55;;
7116;SDS011;3600;48.568;7.870;2023-04-28T08:09:05;5.80;;;4.40;;
7116;SDS011;3600;48.568;7.870;2023-04-28T08:11:32;4.90;;;4.50;;
7116;SDS011;3600;48.568;7.870;2023-04-28T08:13:59;4.93;;;4.28;;
7116;SDS011;3600;48.568;7.870;2023-04-28T08:16:29;4.63;;;4.22;;
7116;SDS011;3600;48.568;7.870;2023-04-28T08:18:56;4.63;;;4.22;;
7116;SDS011;3600;48.568;7.870;2023-04-28T08:21:24;5.00;;;3.92;;
7116;SDS011;3600;48.568;7.870;2023-04-28T08:23:52;4.80;;;4.30;;
7116;SDS011;3600;48.568;7.870;2023-04-28T08:26:18;5.03;;;4.57;;
7116;SDS011;3600;48.568;7.870;2023-04-28T08:28:45;4.63;;;4.22;;
7116;SDS011;3600;48.568;7.870;2023-04-28T08:31:12;4.72;;;4.32;;
7116;SDS011;3600;48.568;7.870;2023-04-28T08:33:39;5.55;;;4.68;;
7116;SDS011;3600;48.568;7.870;2023-04-28T08:36:09;4.80;;;4.40;;
7116;SDS011;3600;48.568;7.870;2023-04-28T08:38:37;5.82;;;4.28;;
7116;SDS011;3600;48.568;7.870;2023-04-28T08:41:04;5.55;;;5.05;;
7116;SDS011;3600;48.568;7.870;2023-04-28T08:43:32;5.20;;;4.70;;
7116;SDS011;3600;48.568;7.870;2023-04-28T08:46:03;5.28;;;4.78;;
7116;SDS011;3600;48.568;7.870;2023-04-28T08:48:40;5.55;;;5.05;;
7116;SDS011;3600;48.568;7.870;2023-04-28T08:51:09;6.00;;;4.88;;
7116;SDS011;3600;48.568;7.870;2023-04-28T08:53:40;5.80;;;5.30;;
7116;SDS011;3600;48.568;7.870;2023-04-28T08:56:33;5.85;;;5.25;;
7116;SDS011;3600;48.568;7.870;2023-04-28T08:59:01;5.30;;;4.80;;
7116;SDS011;3600;48.568;7.870;2023-04-28T09:01:32;6.07;;;4.88;;
7116;SDS011;3600;48.568;7.870;2023-04-28T09:03:59;5.80;;;4.90;;
7116;SDS011;3600;48.568;7.870;2023-04-28T09:06:31;5.07;;;4.68;;
7116;SDS011;3600;48.568;7.870;2023-04-28T09:09:17;5.97;;;5.00;;
7116;SDS011;3600;48.568;7.870;2023-04-28T09:14:21;5.05;;;4.65;;
7116;SDS011;3600;48.568;7.870;2023-04-28T09:16:49;5.78;;;5.13;;
7116;SDS011;3600;48.568;7.870;2023-04-28T09:19:17;5.28;;;4.88;;
7116;SDS011;3600;48.568;7.870;2023-04-28T09:21:54;5.80;;;5.30;;
7116;SDS011;3600;48.568;7.870;2023-04-28T09:24:26;5.63;;;4.72;;
7116;SDS011;3600;48.568;7.870;2023-04-28T09:26:54;5.40;;;4.90;;
7116;SDS011;3600;48.568;7.870;2023-04-28T09:29:21;5.70;;;4.63;;
7116;SDS011;3600;48.568;7.870;2023-04-28T09:31:48;6.43;;;5.40;;
7116;SDS011;3600;48.568;7.870;2023-04-28T09:34:16;5.15;;;4.72;;
7116;SDS011;3600;48.568;7.870;2023-04-28T09:36:43;5.75;;;5.20;;
7116;SDS011;3600;48.568;7.870;2023-04-28T09:39:09;5.30;;;4.80;;
7116;SDS011;3600;48.568;7.870;2023-04-28T09:41:41;5.40;;;4.90;;
7116;SDS011;3600;48.568;7.870;2023-04-28T09:44:09;5.82;;;5.32;;
7116;SDS011;3600;48.568;7.870;2023-04-28T09:46:41;5.47;;;5.07;;
7116;SDS011;3600;48.568;7.870;2023-04-28T09:49:10;5.03;;;4.65;;
7116;SDS011;3600;48.568;7.870;2023-04-28T09:51:38;5.55;;;5.05;;
7116;SDS011;3600;48.568;7.870;2023-04-28T09:54:06;5.43;;;4.90;;
7116;SDS011;3600;48.568;7.870;2023-04-28T09:56:33;5.35;;;4.85;;
7116;SDS011;3600;48.568;7.870;2023-04-28T09:59:06;5.38;;;4.60;;
7116;SDS011;3600;48.568;7.870;2023-04-28T10:01:36;5.32;;;4.93;;
7116;SDS011;3600;48.568;7.870;2023-04-28T10:04:06;5.20;;;4.63;;
7116;SDS011;3600;48.568;7.870;2023-04-28T10:06:35;5.18;;;4.32;;
7116;SDS011;3600;48.568;7.870;2023-04-28T10:09:02;5.18;;;4.72;;
7116;SDS011;3600;48.568;7.870;2023-04-28T10:11:30;5.45;;;4.40;;
7116;SDS011;3600;48.568;7.870;2023-04-28T10:13:59;4.55;;;4.15;;
7116;SDS011;3600;48.568;7.870;2023-04-28T10:16:26;3.83;;;3.53;;
7116;SDS011;3600;48.568;7.870;2023-04-28T10:18:57;4.15;;;3.83;;
7116;SDS011;3600;48.568;7.870;2023-04-28T10:21:25;5.40;;;4.75;;
7116;SDS011;3600;48.568;7.870;2023-04-28T10:23:58;4.47;;;4.07;;
7116;SDS011;3600;48.568;7.870;2023-04-28T10:26:57;4.53;;;4.13;;
7116;SDS011;3600;48.568;7.870;2023-04-28T10:29:33;4.28;;;3.65;;
7116;SDS011;3600;48.568;7.870;2023-04-28T10:34:51;4.18;;;3.88;;
7116;SDS011;3600;48.568;7.870;2023-04-28T10:37:18;4.68;;;4.30;;
7116;SDS011;3600;48.568;7.870;2023-04-28T10:40:29;4.40;;;3.85;;
7116;SDS011;3600;48.568;7.870;2023-04-28T10:43:01;4.47;;;4.13;;
7116;SDS011;3600;48.568;7.870;2023-04-28T10:48:15;4.20;;;3.85;;
7116;SDS011;3600;48.568;7.870;2023-04-28T10:58:44;3.90;;;3.60;;
7116;SDS011;3600;48.568;7.870;2023-04-28T11:06:33;3.40;;;3.10;;
7116;SDS011;3600;48.568;7.870;2023-04-28T11:09:02;3.72;;;3.40;;
7116;SDS011;3600;48.568;7.870;2023-04-28T11:16:56;3.67;;;3.10;;
7116;SDS011;3600;48.568;7.870;2023-04-28T11:19:29;2.90;;;2.70;;
7116;SDS011;3600;48.568;7.870;2023-04-28T11:22:04;3.50;;;3.20;;
7116;SDS011;3600;48.568;7.870;2023-04-28T11:24:58;3.50;;;3.20;;
7116;SDS011;3600;48.568;7.870;2023-04-28T11:27:29;3.45;;;3.13;;
7116;SDS011;3600;48.568;7.870;2023-04-28T11:29:58;3.03;;;2.83;;
7116;SDS011;3600;48.568;7.870;2023-04-28T11:34:53;3.78;;;3.05;;
7116;SDS011;3600;48.568;7.870;2023-04-28T11:37:20;4.65;;;3.30;;
7116;SDS011;3600;48.568;7.870;2023-04-28T11:39:48;3.60;;;3.30;;
7116;SDS011;3600;48.568;7.870;2023-04-28T11:42:15;4.13;;;3.10;;
7116;SDS011;3600;48.568;7.870;2023-04-28T11:44:48;3.60;;;3.22;;
7116;SDS011;3600;48.568;7.870;2023-04-28T11:47:29;3.67;;;3.17;;
7116;SDS011;3600;48.568;7.870;2023-04-28T11:49:59;3.70;;;3.40;;
7116;SDS011;3600;48.568;7.870;2023-04-28T11:52:28;4.07;;;3.67;;
7116;SDS011;3600;48.568;7.870;2023-04-28T11:54:56;3.72;;;3.42;;
7116;SDS011;3600;48.568;7.870;2023-04-28T11:57:25;3.25;;;3.05;;
7116;SDS011;3600;48.568;7.870;2023-04-28T11:59:52;5.38;;;3.60;;
7116;SDS011;3600;48.568;7.870;2023-04-28T12:02:23;5.80;;;3.65;;
7116;SDS011;3600;48.568;7.870;2023-04-28T12:05:03;4.93;;;4.22;;
7116;SDS011;3600;48.568;7.870;2023-04-28T12:07:38;4.13;;;3.83;;
7116;SDS011;3600;48.568;7.870;2023-04-28T12:10:14;4.15;;;3.75;;
7116;SDS011;3600;48.568;7.870;2023-04-28T12:12:42;4.38;;;3.97;;
7116;SDS011;3600;48.568;7.870;2023-04-28T12:15:18;4.63;;;4.07;;
7116;SDS011;3600;48.568;7.870;2023-04-28T12:17:47;4.60;;;4.20;;
7116;SDS011;3600;48.568;7.870;2023-04-28T12:20:35;4.75;;;4.28;;
7116;SDS011;3600;48.568;7.870;2023-04-28T12:23:03;5.28;;;4.50;;
7116;SDS011;3600;48.568;7.870;2023-04-28T12:25:30;4.72;;;4.32;;
7116;SDS011;3600;48.568;7.870;2023-04-28T12:28:02;4.63;;;4.32;;
7116;SDS011;3600;48.568;7.870;2023-04-28T12:30:32;4.93;;;4.53;;
7116;SDS011;3600;48.568;7.870;2023-04-28T12:33:00;4.72;;;4.32;;
7116;SDS011;3600;48.568;7.870;2023-04-28T12:35:27;5.00;;;4.60;;
7116;SDS011;3600;48.568;7.870;2023-04-28T12:37:54;5.20;;;4.70;;
7116;SDS011;3600;48.568;7.870;2023-04-28T12:40:23;5.15;;;4.65;;
7116;SDS011;3600;48.568;7.870;2023-04-28T12:42:51;5.15;;;4.15;;
7116;SDS011;3600;48.568;7.870;2023-04-28T12:45:18;4.28;;;3.88;;
7116;SDS011;3600;48.568;7.870;2023-04-28T12:47:45;4.82;;;4.28;;
7116;SDS011;3600;48.568;7.870;2023-04-28T12:50:13;4.38;;;3.97;;
7116;SDS011;3600;48.568;7.870;2023-04-28T12:52:40;4.43;;;4.03;;
7116;SDS011;3600;48.568;7.870;2023-04-28T12:55:07;4.00;;;3.60;;
7116;SDS011;3600;48.568;7.870;2023-04-28T12:57:34;6.15;;;4.30;;
7116;SDS011;3600;48.568;7.870;2023-04-28T13:00:05;4.22;;;3.42;;
7116;SDS011;3600;48.568;7.870;2023-04-28T13:02:32;4.82;;;4.15;;
7116;SDS011;3600;48.568;7.870;2023-04-28T13:05:00;5.18;;;3.95;;
7116;SDS011;3600;48.568;7.870;2023-04-28T13:07:27;5.45;;;4.53;;
7116;SDS011;3600;48.568;7.870;2023-04-28T13:09:55;4.35;;;4.05;;
7116;SDS011;3600;48.568;7.870;2023-04-28T13:12:22;5.18;;;3.85;;
7116;SDS011;3600;48.568;7.870;2023-04-28T13:14:49;4.47;;;4.07;;
7116;SDS011;3600;48.568;7.870;2023-04-28T13:17:16;4.50;;;4.07;;
7116;SDS011;3600;48.568;7.870;2023-04-28T13:19:43;4.38;;;3.55;;
7116;SDS011;3600;48.568;7.870;2023-04-28T13:22:10;4.10;;;3.58;;
7116;SDS011;3600;48.568;7.870;2023-04-28T13:24:37;4.10;;;3.70;;
7116;SDS011;3600;48.568;7.870;2023-04-28T13:27:04;3.80;;;3.55;;
7116;SDS011;3600;48.568;7.870;2023-04-28T13:29:35;3.90;;;3.60;;
7116;SDS011;3600;48.568;7.870;2023-04-28T13:32:02;4.35;;;3.95;;
7116;SDS011;3600;48.568;7.870;2023-04-28T13:34:33;4.40;;;4.10;;
7116;SDS011;3600;48.568;7.870;2023-04-28T13:36:59;4.30;;;4.00;;
7116;SDS011;3600;48.568;7.870;2023-04-28T13:39:26;4.70;;;4.30;;
7116;SDS011;3600;48.568;7.870;2023-04-28T13:41:53;4.55;;;4.25;;
7116;SDS011;3600;48.568;7.870;2023-04-28T13:44:20;5.57;;;5.07;;
7116;SDS011;3600;48.568;7.870;2023-04-28T13:46:46;4.88;;;4.55;;
7116;SDS011;3600;48.568;7.870;2023-04-28T13:49:13;5.22;;;4.75;;
7116;SDS011;3600;48.568;7.870;2023-04-28T13:51:40;6.53;;;5.18;;
7116;SDS011;3600;48.568;7.870;2023-04-28T13:54:07;4.80;;;4.40;;
7116;SDS011;3600;48.568;7.870;2023-04-28T13:56:36;5.72;;;5.30;;
7116;SDS011;3600;48.568;7.870;2023-04-28T13:59:03;4.32;;;3.92;;
7116;SDS011;3600;48.568;7.870;2023-04-28T14:01:30;3.78;;;3.47;;
7116;SDS011;3600;48.568;7.870;2023-04-28T14:03:57;3.17;;;2.92;;
7116;SDS011;3600;48.568;7.870;2023-04-28T14:06:25;2.90;;;2.70;;
7116;SDS011;3600;48.568;7.870;2023-04-28T14:08:52;2.40;;;2.20;;
7116;SDS011;3600;48.568;7.870;2023-04-28T14:11:19;2.47;;;2.10;;
7116;SDS011;3600;48.568;7.870;2023-04-28T14:13:46;1.73;;;1.63;;
7116;SDS011;3600;48.568;7.870;2023-04-28T14:16:13;2.35;;;1.98;;
7116;SDS011;3600;48.568;7.870;2023-04-28T14:18:40;2.25;;;1.20;;
7116;SDS011;3600;48.568;7.870;2023-04-28T14:21:07;1.58;;;1.48;;
7116;SDS011;3600;48.568;7.870;2023-04-28T14:23:34;1.80;;;1.70;;
7116;SDS011;3600;48.568;7.870;2023-04-28T14:26:00;1.17;;;1.10;;
7116;SDS011;3600;48.568;7.870;2023-04-28T14:28:27;1.50;;;1.40;;
7116;SDS011;3600;48.568;7.870;2023-04-28T14:30:54;1.38;;;1.27;;
7116;SDS011;3600;48.568;7.870;2023-04-28T14:33:22;1.42;;;1.33;;
7116;SDS011;3600;48.568;7.870;2023-04-28T14:35:49;1.02;;;1.02;;
7116;SDS011;3600;48.568;7.870;2023-04-28T14:38:16;1.23;;;1.17;;
7116;SDS011;3600;48.568;7.870;2023-04-28T14:40:43;1.40;;;1.30;;
7116;SDS011;3600;48.568;7.870;2023-04-28T14:43:10;1.17;;;1.08;;
7116;SDS011;3600;48.568;7.870;2023-04-28T14:45:36;1.40;;;1.30;;
7116;SDS011;3600;48.568;7.870;2023-04-28T14:48:03;1.20;;;1.20;;
7116;SDS011;3600;48.568;7.870;2023-04-28T14:50:32;1.65;;;1.20;;
7116;SDS011;3600;48.568;7.870;2023-04-28T14:52:59;1.00;;;1.00;;
7116;SDS011;3600;48.568;7.870;2023-04-28T14:55:30;1.85;;;1.30;;
7116;SDS011;3600;48.568;7.870;2023-04-28T14:57:58;1.10;;;1.10;;
7116;SDS011;3600;48.568;7.870;2023-04-28T15:00:24;1.27;;;1.20;;
7116;SDS011;3600;48.568;7.870;2023-04-28T15:02:51;1.60;;;1.50;;
7116;SDS011;3600;48.568;7.870;2023-04-28T15:05:18;1.48;;;1.38;;
7116;SDS011;3600;48.568;7.870;2023-04-28T15:07:45;4.65;;;1.55;;
7116;SDS011;3600;48.568;7.870;2023-04-28T15:10:12;1.63;;;1.50;;
7116;SDS011;3600;48.568;7.870;2023-04-28T15:12:39;2.05;;;1.35;;
7116;SDS011;3600;48.568;7.870;2023-04-28T15:15:07;2.20;;;1.83;;
7116;SDS011;3600;48.568;7.870;2023-04-28T15:17:35;1.60;;;1.50;;
7116;SDS011;3600;48.568;7.870;2023-04-28T15:20:01;1.95;;;1.85;;
7116;SDS011;3600;48.568;7.870;2023-04-28T15:22:29;1.70;;;1.60;;
7116;SDS011;3600;48.568;7.870;2023-04-28T15:24:56;2.25;;;1.88;;
7116;SDS011;3600;48.568;7.870;2023-04-28T15:27:23;1.58;;;1.58;;
7116;SDS011;3600;48.568;7.870;2023-04-28T15:29:50;2.95;;;2.47;;
7116;SDS011;3600;48.568;7.870;2023-04-28T15:32:16;2.40;;;2.30;;
7116;SDS011;3600;48.568;7.870;2023-04-28T15:34:44;2.85;;;2.55;;
7116;SDS011;3600;48.568;7.870;2023-04-28T15:37:37;2.83;;;2.55;;
7116;SDS011;3600;48.568;7.870;2023-04-28T15:40:13;2.75;;;2.45;;
7116;SDS011;3600;48.568;7.870;2023-04-28T15:42:42;5.22;;;2.53;;
7116;SDS011;3600;48.568;7.870;2023-04-28T15:45:15;3.53;;;2.42;;
7116;SDS011;3600;48.568;7.870;2023-04-28T15:47:44;2.55;;;2.45;;
7116;SDS011;3600;48.568;7.870;2023-04-28T15:50:12;2.58;;;2.40;;